Spokane, WA (99216)

5:45 PM PST on January 25, 2015 (GMT -0800)
Broadway Ave | Change Station
CLOSE
Current Station
Personal Weather Station
Location: Veradale, WA
Elevation: 2057 ft
Nearby Weather Stations
Active Advisory: Dense Fog Advisory Active Notice: Record Report

Elev 2057 ft 47.66 °N, 117.19 °W | Updated 3 seconds ago

Clear
Clear
42.3 °F
Feels Like 42 °F
N
0.0
Wind Variable Wind from SW
Gusts 0.0 mph

Today
High -- | Low -- °F
--% Chance of Precip.
Yesterday
High -- | Low -- °F
Precip. -- in
7:24 AM 4:38 PM
Waxing Crescent, 38% visible
Pressure 30.23 in
Visibility 5.0 miles
Clouds Clear
Windchill 42 °F
Dew Point 32 °F
Humidity 66%
Rainfall 0.00 in
Snow Depth Not available.
UV 10.1 out of 12
Pollen .90 out of 12
Air Quality Not available.
Flu Activity Not available.
METAR KSFF 260053Z COR 00000KT 5SM BR CLR 07/04 A3021 RMK AO2 SLP237 T00670044

More Conditions Fewer Conditions

Pressure 30.23 in
Visibility 5.0 miles
Clouds Clear
Windchill 42 °F
Dew Point 32 °F
Humidity 66%
Rainfall 0.00 in
Snow Depth Not available.
UV 10.1 out of 12
Pollen .90 out of 12
Air Quality Not available.
Flu Activity Not available.
METAR KSFF 260053Z COR 00000KT 5SM BR CLR 07/04 A3021 RMK AO2 SLP237 T00670044

More Conditions Fewer Conditions

Nowcast | as of 4:53 PM PST on January 25, 2015

Locally dense fog has either remained in most northern valley locations in various amounts or has moved south into the Spokane and Coeur D Alene areas this early evening. This will persist through the night. Locations near the West Plains and higher elevations of I-90 will have visibilities of a quarter mile or less at times. This will impact portions of Highway 2 from Fairchild Air Force Base to Almira...as well as i90 from the West Plains to Ritzville and points to the north. Motorists should be prepared for sudden changes in visibility and reduce speeds accordingly.

×

10-Day Weather Forecast

Almanac

Astronomy

Jan. 25, 2015 Rise Set
Actual Time
Civil Twilight
Nautical Twilight
Astronomical Twilight
Moon
Length of Visible Light
Length of Day
Tomorrow will be .
, % of the Moon is Illuminated

Today's Extremes

State Highs State Lows

Community

WunderPhotos

Upload Photos

1,790,045 photos uploaded!

WunderBlogs® & News

Nearby

Air Quality

  Air Quality AQ Index Pollutant
Not available.

Snow Depth

Station Depth Elevation

Earthquake Activity

City Distance Mag. Time & Date
Minimum magnitude displayed is 2.5.

Coastal Water Temperatures

Place Temperature

Nearby Weather Stations